Time;durP1;ratioP1;P1;durP2;ratioP2;P2;SDS_P1;SDS_P2;PMS_P1;PMS_P2;Temp;Humidity;BMP_temperature;BMP_pressure;BME280_temperature;BME280_humidity;BME280_pressure;Samples;Min_cycle;Max_cycle;Signal;HPM_P1;HPM_P2
2023/01/23 00:00:07;;;;;;;6.80;4.35;;;;;;;4.55;72.59;101845.03;10254603;28;20032;-60
2023/01/23 00:05:08;;;;;;;8.65;4.18;;;;;;;4.53;72.66;101837.13;10255506;28;20055;-60
2023/01/23 00:10:10;;;;;;;8.18;4.05;;;;;;;4.55;72.48;101842.34;10258546;28;20052;-61
2023/01/23 00:15:12;;;;;;;8.43;3.83;;;;;;;4.47;72.76;101847.31;10251456;28;20051;-61
2023/01/23 00:20:13;;;;;;;9.57;4.57;;;;;;;4.45;72.72;101849.25;10250313;28;20051;-61
2023/01/23 00:25:15;;;;;;;10.00;4.93;;;;;;;4.45;72.70;101851.91;10255191;28;20052;-61
2023/01/23 00:30:16;;;;;;;8.60;4.50;;;;;;;4.43;72.57;101852.00;10251609;28;20637;-59
2023/01/23 00:35:18;;;;;;;9.68;4.57;;;;;;;4.48;72.53;101846.34;10256148;28;20062;-59
2023/01/23 00:40:20;;;;;;;8.90;4.22;;;;;;;4.44;72.19;101860.81;10258224;28;20817;-59
2023/01/23 00:45:22;;;;;;;9.88;4.82;;;;;;;4.46;72.24;101853.59;10256046;28;20044;-62
2023/01/23 00:50:23;;;;;;;7.65;3.70;;;;;;;4.51;71.85;101857.66;10250159;28;20801;-61
2023/01/23 00:55:25;;;;;;;8.35;4.13;;;;;;;4.54;72.09;101872.59;10255489;28;20047;-60
2023/01/23 01:00:26;;;;;;;8.00;4.05;;;;;;;4.50;72.38;101857.75;10255534;28;20406;-61
2023/01/23 01:05:28;;;;;;;8.60;4.10;;;;;;;4.48;71.90;101857.88;10252789;28;20047;-62
2023/01/23 01:10:31;;;;;;;8.65;4.63;;;;;;;4.33;72.27;101858.88;10254557;28;20051;-61
2023/01/23 01:15:33;;;;;;;9.48;5.07;;;;;;;4.27;72.15;101862.78;10269121;28;20063;-62
2023/01/23 01:20:34;;;;;;;9.35;4.70;;;;;;;4.13;72.34;101866.31;10261750;28;20074;-59
2023/01/23 01:25:36;;;;;;;12.07;4.60;;;;;;;4.07;72.09;101874.69;10265354;28;20065;-59
2023/01/23 01:30:38;;;;;;;11.25;5.85;;;;;;;4.01;72.20;101876.84;10268094;28;20062;-61
2023/01/23 01:35:40;;;;;;;10.13;4.60;;;;;;;3.91;72.40;101884.53;10260573;28;20048;-66
2023/01/23 01:40:41;;;;;;;11.85;5.40;;;;;;;3.89;71.91;101884.66;10267740;28;20055;-61
2023/01/23 01:46:22;;;;;;;11.88;5.68;;;;;;;3.84;72.22;101888.56;10258800;28;20526;-62
2023/01/23 01:51:31;;;;;;;13.57;5.95;;;;;;;3.73;72.29;101895.38;10260649;28;20070;-59
2023/01/23 01:56:38;;;;;;;11.43;5.75;;;;;;;3.69;72.31;101906.28;10262860;28;20059;-58
2023/01/23 02:01:44;;;;;;;13.35;5.63;;;;;;;3.65;72.81;101896.78;10260544;28;20121;-61
2023/01/23 02:06:45;;;;;;;15.18;6.05;;;;;;;3.61;72.65;101901.41;10265628;28;20079;-62
2023/01/23 02:11:48;;;;;;;11.70;5.80;;;;;;;3.62;72.63;101900.50;10258688;28;20054;-62
2023/01/23 02:16:51;;;;;;;12.90;5.82;;;;;;;3.57;72.79;101895.47;10267921;28;20051;-61
2023/01/23 02:22:03;;;;;;;11.88;5.78;;;;;;;3.58;72.81;101901.63;10260434;28;20071;-59
2023/01/23 02:27:05;;;;;;;11.05;5.88;;;;;;;3.62;73.06;101900.50;10258913;28;20051;-59
2023/01/23 02:32:06;;;;;;;15.38;7.35;;;;;;;3.70;73.29;101903.53;10262499;28;20051;-61
2023/01/23 02:37:08;;;;;;;12.52;5.70;;;;;;;3.78;73.41;101898.59;10260684;28;20048;-60
2023/01/23 02:42:10;;;;;;;13.65;5.35;;;;;;;3.84;73.34;101894.72;10264278;28;20047;-61
2023/01/23 02:47:11;;;;;;;11.93;5.53;;;;;;;3.93;72.92;101904.81;10256191;28;20055;-61
2023/01/23 02:52:13;;;;;;;14.05;6.00;;;;;;;4.00;73.27;101907.06;10255184;28;20047;-59
2023/01/23 02:57:15;;;;;;;11.63;5.55;;;;;;;3.97;72.96;101916.97;10266253;28;20047;-62
2023/01/23 03:02:16;;;;;;;11.18;5.18;;;;;;;3.88;73.21;101914.00;10262367;28;20052;-62
2023/01/23 03:07:18;;;;;;;10.73;5.30;;;;;;;3.85;73.23;101917.72;10259769;28;20071;-61
2023/01/23 03:12:20;;;;;;;13.40;6.93;;;;;;;3.84;73.19;101931.09;10260555;28;20071;-60
2023/01/23 03:17:21;;;;;;;13.07;6.00;;;;;;;3.82;73.43;101927.69;10264588;28;20051;-61
2023/01/23 03:22:23;;;;;;;12.30;5.28;;;;;;;3.84;73.50;101931.09;10261789;28;20056;-61
2023/01/23 03:27:24;;;;;;;13.38;6.40;;;;;;;3.88;73.38;101932.63;10262325;28;20107;-60
2023/01/23 03:32:28;;;;;;;11.00;5.22;;;;;;;3.94;73.32;101932.25;10258862;28;20066;-60
2023/01/23 03:37:29;;;;;;;10.15;4.65;;;;;;;3.97;73.45;101927.59;10258586;28;20042;-60
2023/01/23 03:42:34;;;;;;;11.50;5.35;;;;;;;3.96;73.48;101938.34;10259892;28;20257;-63
2023/01/23 03:47:35;;;;;;;7.70;4.43;;;;;;;3.98;73.54;101937.28;10257339;28;20055;-62
2023/01/23 03:52:37;;;;;;;8.02;4.30;;;;;;;4.01;73.30;101944.25;10255476;28;20058;-60
2023/01/23 03:57:38;;;;;;;10.55;4.63;;;;;;;4.04;73.07;101940.53;10256289;28;20051;-61
2023/01/23 04:02:40;;;;;;;8.35;4.53;;;;;;;4.06;72.93;101938.63;10257107;28;20055;-61
2023/01/23 04:07:41;;;;;;;9.02;4.43;;;;;;;4.12;73.23;101936.44;10259422;28;20083;-61
2023/01/23 04:12:43;;;;;;;9.52;5.18;;;;;;;4.18;72.97;101936.03;10240087;29;20047;-63
2023/01/23 04:17:44;;;;;;;10.73;4.80;;;;;;;4.14;73.19;101931.88;10260787;28;20051;-61
2023/01/23 04:22:45;;;;;;;7.85;4.25;;;;;;;4.17;73.09;101936.16;10267307;28;20052;-61
2023/01/23 04:27:47;;;;;;;8.80;4.47;;;;;;;4.21;73.08;101937.69;10262109;28;20043;-60
2023/01/23 04:32:48;;;;;;;7.72;4.03;;;;;;;4.21;73.16;101934.19;10255185;28;20059;-58
2023/01/23 04:37:50;;;;;;;8.52;4.57;;;;;;;4.22;72.93;101928.72;10258177;28;20628;-61
2023/01/23 04:42:51;;;;;;;7.13;3.70;;;;;;;4.24;72.81;101925.97;10249578;28;20043;-63
2023/01/23 04:47:53;;;;;;;6.50;3.85;;;;;;;4.32;72.87;101924.53;10256031;28;20047;-62
2023/01/23 04:52:55;;;;;;;7.75;3.53;;;;;;;4.30;72.69;101930.91;10260837;28;20091;-60
2023/01/23 04:57:56;;;;;;;6.82;3.70;;;;;;;4.29;72.70;101930.06;10258160;28;20043;-62
2023/01/23 05:02:58;;;;;;;8.43;3.97;;;;;;;4.36;72.38;101927.88;10259509;28;20052;-59
2023/01/23 05:07:59;;;;;;;9.05;4.13;;;;;;;4.32;72.56;101921.88;10261016;28;20055;-62
2023/01/23 05:13:01;;;;;;;8.35;3.72;;;;;;;4.32;72.58;101921.88;10260358;29;20055;-61
2023/01/23 05:18:03;;;;;;;8.32;4.13;;;;;;;4.38;72.06;101936.59;10256172;28;20067;-60
2023/01/23 05:23:04;;;;;;;6.80;3.45;;;;;;;4.35;72.74;101940.34;10257413;28;20064;-60
2023/01/23 05:28:06;;;;;;;6.10;3.60;;;;;;;4.37;72.46;101942.91;10253819;28;20058;-59
2023/01/23 05:33:07;;;;;;;6.47;3.28;;;;;;;4.36;72.47;101959.81;10258589;28;20082;-61
2023/01/23 05:38:10;;;;;;;7.15;3.10;;;;;;;4.36;72.60;101966.00;10255252;28;20055;-61
2023/01/23 05:43:14;;;;;;;6.13;3.08;;;;;;;4.40;72.42;101971.13;10260237;28;20051;-60
2023/01/23 05:48:15;;;;;;;7.35;3.42;;;;;;;4.43;72.38;101976.28;10246487;28;20059;-62
2023/01/23 05:53:16;;;;;;;7.80;3.67;;;;;;;4.49;72.54;101982.06;10263682;28;20051;-62
2023/01/23 05:58:18;;;;;;;6.47;4.03;;;;;;;4.55;71.89;101992.31;10246980;28;20420;-62
2023/01/23 06:03:19;;;;;;;5.75;3.47;;;;;;;4.54;71.98;101990.63;10255141;28;20047;-62
2023/01/23 06:08:21;;;;;;;7.18;4.10;;;;;;;4.61;71.79;101980.44;10259430;29;20055;-61
2023/01/23 06:13:22;;;;;;;6.55;3.58;;;;;;;4.63;71.82;101985.66;10251881;28;20052;-63
2023/01/23 06:18:24;;;;;;;7.03;3.65;;;;;;;4.57;71.91;102002.88;10264216;28;20063;-60
2023/01/23 06:23:26;;;;;;;8.73;3.78;;;;;;;4.62;71.72;102000.81;10247965;28;20290;-58
2023/01/23 06:28:27;;;;;;;5.22;3.60;;;;;;;4.63;71.88;102007.81;10246851;29;20052;-59
2023/01/23 06:33:30;;;;;;;6.30;3.53;;;;;;;4.64;71.83;102022.00;10255063;28;20047;-62
2023/01/23 06:38:32;;;;;;;8.20;4.57;;;;;;;4.74;71.37;102015.16;10258663;28;20118;-60
2023/01/23 06:43:33;;;;;;;8.18;4.35;;;;;;;4.76;71.44;102018.59;10264282;28;20057;-61
2023/01/23 06:48:35;;;;;;;7.25;3.97;;;;;;;4.72;71.86;102022.38;10261061;28;20443;-62
2023/01/23 06:53:37;;;;;;;7.28;4.03;;;;;;;4.69;71.69;102028.75;10263025;28;20153;-61
2023/01/23 06:58:38;;;;;;;5.75;3.70;;;;;;;4.60;71.61;102034.66;10262654;28;20144;-62
2023/01/23 07:03:41;;;;;;;7.80;4.15;;;;;;;4.55;71.87;102034.94;10260494;28;20056;-60
2023/01/23 07:08:43;;;;;;;7.40;3.72;;;;;;;4.55;71.78;102042.06;10264960;28;20052;-62
2023/01/23 07:13:51;;;;;;;7.30;3.83;;;;;;;4.55;71.66;102034.94;10364289;23;20059;-88
2023/01/23 07:18:53;;;;;;;8.18;4.00;;;;;;;4.55;71.62;102034.94;10263614;28;20379;-88
2023/01/23 07:23:54;;;;;;;6.68;4.00;;;;;;;4.52;71.64;102047.56;10248170;28;20488;-87
2023/01/23 07:28:56;;;;;;;8.00;4.65;;;;;;;4.47;71.41;102049.69;10253777;28;20577;-88
2023/01/23 07:33:58;;;;;;;6.40;3.70;;;;;;;4.39;71.45;102052.81;10265784;28;20054;-86
2023/01/23 07:39:00;;;;;;;5.40;3.05;;;;;;;4.30;71.59;102062.19;10257387;28;20106;-86
2023/01/23 07:44:02;;;;;;;6.32;3.65;;;;;;;4.20;72.01;102074.34;10262365;28;20039;-86
2023/01/23 07:49:04;;;;;;;6.32;3.50;;;;;;;4.22;71.62;102085.75;10258205;28;20050;-88
2023/01/23 07:54:06;;;;;;;7.97;4.05;;;;;;;4.21;71.64;102094.72;10269994;28;20057;-87
2023/01/23 07:59:07;;;;;;;5.78;3.22;;;;;;;4.17;72.20;102104.69;10246312;28;20058;-88
2023/01/23 08:04:09;;;;;;;5.90;3.03;;;;;;;4.26;72.03;102110.41;10258358;28;20089;-88
2023/01/23 08:09:11;;;;;;;6.75;3.92;;;;;;;4.36;71.49;102119.53;10268144;28;20487;-89
2023/01/23 08:14:13;;;;;;;13.23;4.20;;;;;;;4.40;71.49;102125.53;10243925;28;20051;-88
2023/01/23 08:19:15;;;;;;;8.57;4.40;;;;;;;4.56;71.93;102127.22;10265026;28;20051;-88
2023/01/23 08:24:17;;;;;;;6.80;3.97;;;;;;;4.67;71.97;102126.53;10247513;28;20051;-88
2023/01/23 08:29:42;;;;;;;8.27;3.75;;;;;;;4.80;71.72;102134.66;10246031;28;20104;-88
2023/01/23 08:34:45;;;;;;;6.97;3.60;;;;;;;4.74;71.87;102143.03;10241022;28;20055;-88
2023/01/23 08:40:04;;;;;;;6.32;4.13;;;;;;;4.83;72.04;102137.13;10264112;28;20050;-88
2023/01/23 08:45:25;;;;;;;7.50;4.10;;;;;;;4.83;71.25;102152.25;10245303;28;20466;-88
2023/01/23 08:50:52;;;;;;;7.70;4.50;;;;;;;4.93;71.57;102148.91;10259253;28;20118;-89
2023/01/23 08:56:25;;;;;;;10.00;5.05;;;;;;;4.97;71.52;102145.09;10237337;28;20071;-88
2023/01/23 09:02:05;;;;;;;6.43;4.15;;;;;;;5.14;71.14;102148.53;10238344;28;20051;-88
2023/01/23 09:07:10;;;;;;;8.35;4.70;;;;;;;5.01;70.92;102144.94;10244867;28;20058;-88
2023/01/23 09:12:11;;;;;;;6.70;4.30;;;;;;;5.02;71.06;102149.31;10255245;28;20051;-88
2023/01/23 09:17:13;;;;;;;9.50;5.25;;;;;;;5.15;70.77;102145.78;10241812;28;20059;-88
2023/01/23 09:22:15;;;;;;;8.52;4.95;;;;;;;5.18;70.44;102149.22;10247881;28;20061;-89
2023/01/23 09:27:18;;;;;;;8.00;4.57;;;;;;;5.13;70.64;102154.81;10263112;28;20056;-87
2023/01/23 09:38:05;;;;;;;7.00;3.65;;;;;;;5.28;70.72;102153.84;2431619;23;20043;-93
2023/01/23 09:48:42;;;;;;;6.38;3.55;;;;;;;5.43;70.68;102148.50;2679649;27;20086;-91
2023/01/23 09:53:43;;;;;;;7.38;4.47;;;;;;;5.50;70.78;102157.81;10187780;29;20048;-90
2023/01/23 09:58:58;;;;;;;6.72;4.15;;;;;;;5.56;69.62;102150.28;10159822;29;20087;-90
2023/01/23 10:04:01;;;;;;;7.28;4.22;;;;;;;5.62;70.33;102150.84;10178918;29;20036;-90
2023/01/23 10:09:30;;;;;;;7.75;4.25;;;;;;;5.77;70.28;102141.84;10195561;29;20059;-91
2023/01/23 10:14:57;;;;;;;7.95;3.88;;;;;;;5.81;69.61;102150.53;10157025;29;20396;-86
2023/01/23 10:20:38;;;;;;;8.57;4.40;;;;;;;5.81;69.23;102140.69;10157894;29;20090;-86
2023/01/23 10:38:30;;;;;;;8.05;4.43;;;;;;;6.08;69.22;102151.41;10273839;28;20545;-86
2023/01/23 10:43:32;;;;;;;7.32;3.35;;;;;;;6.20;68.62;102151.50;10199081;28;20051;-86
2023/01/23 10:48:35;;;;;;;7.40;3.90;;;;;;;6.29;69.08;102149.09;10205399;28;20553;-86
2023/01/23 10:53:36;;;;;;;6.07;3.47;;;;;;;6.45;67.78;102143.56;10211431;28;20054;-86
2023/01/23 10:58:40;;;;;;;7.57;4.03;;;;;;;6.48;68.28;102148.69;10209639;28;20048;-86
2023/01/23 11:03:44;;;;;;;6.88;3.63;;;;;;;6.39;68.46;102135.97;10209831;28;20399;-86
2023/01/23 11:09:03;;;;;;;6.82;3.97;;;;;;;6.40;67.68;102131.47;10211247;28;20399;-86
2023/01/23 11:14:15;;;;;;;7.78;3.65;;;;;;;6.41;67.76;102120.69;10222295;28;21716;-86
2023/01/23 11:19:21;;;;;;;10.50;4.93;;;;;;;6.53;67.88;102127.84;10226493;28;20062;-85
2023/01/23 11:24:37;;;;;;;7.80;4.18;;;;;;;6.53;67.94;102124.34;10239461;28;20054;-86
2023/01/23 11:30:07;;;;;;;9.38;5.18;;;;;;;6.71;67.54;102119.53;10221916;28;20061;-86
2023/01/23 11:35:18;;;;;;;8.30;4.13;;;;;;;6.82;67.38;102110.78;10199592;28;20399;-85
2023/01/23 11:40:21;;;;;;;8.05;4.05;;;;;;;6.84;67.57;102103.50;10225506;28;20507;-85
2023/01/23 11:45:43;;;;;;;5.07;2.85;;;;;;;6.86;67.15;102091.72;10219575;28;20134;-86
2023/01/23 11:51:19;;;;;;;4.78;2.47;;;;;;;6.93;66.75;102092.13;10212993;29;20058;-86
2023/01/23 11:56:30;;;;;;;4.97;3.00;;;;;;;6.89;67.17;102088.84;10219452;28;20136;-86
2023/01/23 12:02:04;;;;;;;5.53;2.97;;;;;;;6.91;67.00;102086.03;10217272;28;20051;-86
2023/01/23 12:07:20;;;;;;;7.53;3.35;;;;;;;6.73;67.07;102083.75;10230242;28;20050;-86
2023/01/23 12:12:56;;;;;;;7.28;3.60;;;;;;;6.60;66.63;102066.84;10216337;28;20100;-86
2023/01/23 12:18:04;;;;;;;9.30;4.05;;;;;;;6.70;67.09;102069.72;10218272;29;20048;-85
2023/01/23 12:23:20;;;;;;;10.02;4.55;;;;;;;6.67;67.09;102069.94;10232166;28;20055;-86
2023/01/23 12:28:54;;;;;;;8.00;4.53;;;;;;;6.71;66.77;102058.94;10220288;28;20452;-86
2023/01/23 12:34:30;;;;;;;7.05;4.00;;;;;;;6.70;66.49;102056.38;10188118;28;20055;-86
2023/01/23 12:39:52;;;;;;;10.02;4.50;;;;;;;6.81;66.96;102037.72;10216192;28;20063;-87
2023/01/23 12:45:02;;;;;;;35.45;5.13;;;;;;;6.85;65.95;102046.38;10215022;28;20502;-86
2023/01/23 12:50:20;;;;;;;6.35;3.75;;;;;;;6.85;66.77;102041.94;10218245;29;20430;-86
2023/01/23 12:55:45;;;;;;;7.53;4.78;;;;;;;6.81;67.22;102040.41;10203048;28;20044;-86
2023/01/23 13:01:22;;;;;;;10.68;4.22;;;;;;;6.91;66.29;102049.50;10216671;28;20055;-86
2023/01/23 13:06:56;;;;;;;7.53;3.85;;;;;;;6.93;66.67;102036.00;10214904;28;20059;-86
2023/01/23 13:12:03;;;;;;;8.73;3.50;;;;;;;7.06;66.56;102035.97;10232425;28;20059;-86
2023/01/23 13:17:24;;;;;;;7.55;4.00;;;;;;;7.05;66.58;102028.91;10214363;28;20134;-86
2023/01/23 13:22:29;;;;;;;8.52;3.75;;;;;;;7.20;66.07;102026.94;10214596;28;20055;-86
2023/01/23 13:27:43;;;;;;;5.50;3.20;;;;;;;7.13;66.37;102022.06;10233704;29;20119;-88
2023/01/23 13:32:45;;;;;;;7.28;3.45;;;;;;;7.20;66.54;102017.09;10211372;28;20047;-87
2023/01/23 13:37:50;;;;;;;7.72;4.07;;;;;;;7.26;65.87;102018.47;10215951;28;20059;-88
2023/01/23 13:42:52;;;;;;;6.03;3.17;;;;;;;7.20;66.55;102017.09;10213647;28;20063;-87
2023/01/23 13:59:46;;;;;;;8.70;4.50;;;;;;;7.29;66.39;102019.09;9920287;29;20415;-86
2023/01/23 14:05:12;;;;;;;;;;;;;;;7.19;66.76;102003.84;9860082;30;20047;-86
2023/01/23 14:10:30;;;;;;;6.20;3.47;;;;;;;7.20;66.48;102013.56;9728965;30;19938;-86
2023/01/23 14:21:25;;;;;;;6.95;3.67;;;;;;;7.30;65.79;102014.59;9672453;30;20095;-87
2023/01/23 14:26:34;;;;;;;6.88;3.83;;;;;;;7.32;65.81;102023.38;9783408;30;20056;-87
2023/01/23 14:31:36;;;;;;;6.35;3.65;;;;;;;7.37;65.72;102020.38;9890145;29;20558;-87
2023/01/23 14:36:43;;;;;;;10.15;4.50;;;;;;;7.23;65.55;102026.75;9919349;29;20074;-87
2023/01/23 14:41:46;;;;;;;9.10;4.45;;;;;;;7.00;66.04;102031.94;10098025;29;20092;-87
2023/01/23 14:46:53;;;;;;;8.82;4.40;;;;;;;6.93;65.76;102022.63;10211200;28;20052;-87
2023/01/23 14:51:58;;;;;;;8.23;4.43;;;;;;;6.85;66.06;102036.56;10231945;28;20051;-87
2023/01/23 14:57:03;;;;;;;8.40;4.03;;;;;;;6.72;65.80;102028.56;10213858;28;20055;-86
2023/01/23 15:02:23;;;;;;;9.00;4.80;;;;;;;6.61;66.51;102027.63;10242396;28;20059;-87
2023/01/23 15:07:26;;;;;;;9.65;4.80;;;;;;;6.49;66.21;102027.50;10230127;28;20051;-90
2023/01/23 15:12:27;;;;;;;7.43;4.15;;;;;;;6.34;66.41;102029.47;10226055;28;20066;-90
2023/01/23 15:17:30;;;;;;;7.10;4.43;;;;;;;6.21;66.19;102031.25;10216114;28;20063;-86
2023/01/23 15:22:33;;;;;;;9.48;3.58;;;;;;;6.09;66.72;102032.97;10216618;28;20065;-85
2023/01/23 15:27:36;;;;;;;11.40;5.20;;;;;;;5.98;66.95;102042.66;10210766;29;20062;-85
2023/01/23 15:32:37;;;;;;;7.68;4.72;;;;;;;5.92;66.50;102041.22;10223835;28;20074;-85
2023/01/23 15:37:39;;;;;;;7.85;4.25;;;;;;;5.78;66.55;102043.97;10218841;29;20055;-85
2023/01/23 15:42:41;;;;;;;9.18;4.90;;;;;;;5.69;66.74;102032.97;10211082;28;20055;-85
2023/01/23 15:47:42;;;;;;;9.43;4.45;;;;;;;5.60;67.20;102040.72;10235888;28;20993;-85
2023/01/23 15:52:49;;;;;;;10.15;4.18;;;;;;;5.57;66.58;102045.31;10228185;28;20058;-85
2023/01/23 15:57:52;;;;;;;7.72;4.40;;;;;;;5.52;67.37;102050.06;10226894;28;20138;-85
2023/01/23 16:02:55;;;;;;;9.05;4.80;;;;;;;5.45;67.27;102058.56;10223207;29;20166;-85
2023/01/23 16:08:02;;;;;;;11.38;5.63;;;;;;;5.34;67.49;102052.13;10207491;28;20126;-85
2023/01/23 16:13:05;;;;;;;8.95;4.50;;;;;;;5.31;67.22;102052.34;10237405;28;20094;-85
2023/01/23 16:18:06;;;;;;;15.23;6.30;;;;;;;5.24;67.41;102056.34;10230868;28;20043;-85
2023/01/23 16:23:18;;;;;;;8.32;5.15;;;;;;;5.19;67.26;102057.59;10212949;28;20047;-85
2023/01/23 16:28:22;;;;;;;11.02;4.95;;;;;;;5.13;67.56;102054.41;10222885;28;20047;-85
2023/01/23 16:33:24;;;;;;;10.48;5.13;;;;;;;5.11;67.26;102052.75;10196795;28;20043;-85
2023/01/23 16:38:29;;;;;;;8.65;4.78;;;;;;;5.04;67.83;102056.78;10229345;28;20055;-85
2023/01/23 16:43:30;;;;;;;9.70;4.70;;;;;;;5.09;68.05;102062.66;10203047;28;20447;-85
2023/01/23 16:48:32;;;;;;;8.20;4.20;;;;;;;5.16;67.71;102072.00;10234421;28;20522;-85
2023/01/23 16:53:37;;;;;;;9.20;4.93;;;;;;;5.13;68.16;102061.53;10226682;28;20082;-85
2023/01/23 16:58:39;;;;;;;9.95;4.75;;;;;;;5.16;67.94;102058.66;10219535;28;20074;-85
2023/01/23 17:03:44;;;;;;;9.70;4.57;;;;;;;5.13;68.08;102067.72;10254191;28;20046;-89
2023/01/23 17:09:13;;;;;;;8.10;4.57;;;;;;;5.09;68.39;102081.31;10234234;28;20285;-92
2023/01/23 17:14:48;;;;;;;11.90;5.53;;;;;;;5.06;68.36;102078.88;10184067;28;20055;-89
2023/01/23 17:19:58;;;;;;;10.90;6.65;;;;;;;5.06;68.35;102092.19;10246445;28;20055;-87
2023/01/23 17:24:59;;;;;;;12.40;6.07;;;;;;;5.00;68.61;102087.25;10241899;28;20106;-89
2023/01/23 17:30:03;;;;;;;12.05;5.75;;;;;;;4.97;68.53;102082.97;10223445;28;20054;-88
2023/01/23 17:35:08;;;;;;;9.55;4.53;;;;;;;4.96;68.24;102083.94;10226519;28;20086;-92
2023/01/23 17:40:27;;;;;;;11.70;5.68;;;;;;;4.92;68.33;102093.91;10234272;28;20043;-87
2023/01/23 17:45:29;;;;;;;9.02;4.80;;;;;;;4.86;68.43;102101.41;10234858;28;20063;-87
2023/01/23 17:50:31;;;;;;;10.98;5.22;;;;;;;4.87;68.04;102103.16;10234371;28;20115;-88
2023/01/23 17:55:46;;;;;;;10.65;5.65;;;;;;;4.85;68.38;102086.41;10251226;23;20042;-59
2023/01/23 18:00:51;;;;;;;9.50;4.85;;;;;;;4.76;68.36;102093.16;10277665;28;20051;-57
2023/01/23 18:05:52;;;;;;;9.02;5.30;;;;;;;4.71;68.69;102103.25;10278932;28;20130;-60
2023/01/23 18:10:55;;;;;;;11.73;5.28;;;;;;;4.66;68.79;102092.00;10276766;28;20066;-61
2023/01/23 18:16:06;;;;;;;9.95;5.68;;;;;;;4.64;68.61;102101.91;10260379;28;20048;-60
2023/01/23 18:21:16;;;;;;;11.95;5.15;;;;;;;4.60;68.61;102111.91;10277927;28;20048;-58
2023/01/23 18:26:26;;;;;;;11.63;6.03;;;;;;;4.57;69.23;102118.25;10276645;28;20055;-58
2023/01/23 18:31:37;;;;;;;13.95;7.05;;;;;;;4.56;69.37;102116.56;10252681;28;20087;-58
2023/01/23 18:36:49;;;;;;;11.63;6.55;;;;;;;4.50;69.19;102111.59;10253205;28;20051;-60
2023/01/23 18:42:15;;;;;;;13.43;7.15;;;;;;;4.44;69.49;102129.75;10257573;28;20055;-61
2023/01/23 18:47:16;;;;;;;15.27;8.35;;;;;;;4.46;69.22;102136.66;10257976;28;20064;-59
2023/01/23 18:52:23;;;;;;;13.23;7.30;;;;;;;4.48;69.21;102140.13;10258837;28;20055;-60
2023/01/23 18:57:50;;;;;;;17.70;8.10;;;;;;;4.54;69.35;102141.53;10253314;28;20075;-61
2023/01/23 19:02:56;;;;;;;17.35;8.23;;;;;;;4.60;69.80;102135.00;10264244;28;20051;-61
2023/01/23 19:07:59;;;;;;;15.90;7.68;;;;;;;4.65;69.81;102136.44;10258912;28;20051;-61
2023/01/23 19:13:02;;;;;;;15.55;7.80;;;;;;;4.63;69.61;102127.69;10257323;28;20060;-62
2023/01/23 19:18:31;;;;;;;18.42;7.85;;;;;;;4.64;69.41;102141.84;10266238;28;20054;-61
2023/01/23 19:23:59;;;;;;;16.73;8.70;;;;;;;4.51;69.51;102136.41;10258957;28;20039;-63
2023/01/23 19:29:03;;;;;;;13.20;7.60;;;;;;;4.33;70.25;102133.06;10266396;28;20142;-62
2023/01/23 19:34:21;;;;;;;17.00;8.30;;;;;;;4.17;70.39;102131.28;10264419;28;20124;-60
2023/01/23 19:39:22;;;;;;;16.70;7.72;;;;;;;4.07;70.46;102138.09;10264248;28;20377;-60
2023/01/23 19:44:23;;;;;;;18.73;7.60;;;;;;;3.96;70.77;102136.06;10257504;28;20067;-61
2023/01/23 19:49:25;;;;;;;16.63;7.70;;;;;;;3.99;70.62;102127.06;10256470;28;20054;-61
2023/01/23 19:54:26;;;;;;;16.38;7.88;;;;;;;3.90;70.69;102135.56;10245898;28;20075;-61
2023/01/23 19:59:28;;;;;;;18.95;8.82;;;;;;;3.87;70.84;102141.03;10237734;28;20059;-60
2023/01/23 20:04:29;;;;;;;17.80;7.45;;;;;;;3.80;71.14;102151.19;10237137;28;20062;-61
2023/01/23 20:09:30;;;;;;;14.40;7.13;;;;;;;3.81;70.91;102150.25;10257236;28;20051;-60
2023/01/23 20:14:32;;;;;;;14.65;7.38;;;;;;;3.83;71.40;102156.34;10256252;28;20059;-62
2023/01/23 20:19:33;;;;;;;15.98;6.80;;;;;;;3.87;71.30;102154.34;10255922;28;20114;-60
2023/01/23 20:24:35;;;;;;;14.98;7.13;;;;;;;3.90;71.35;102162.16;10257422;28;20054;-62
2023/01/23 20:29:37;;;;;;;15.75;7.97;;;;;;;3.97;71.24;102171.53;10259639;28;20043;-59
2023/01/23 20:34:38;;;;;;;12.80;6.90;;;;;;;4.01;71.45;102169.50;10252317;28;20188;-60
2023/01/23 20:39:40;;;;;;;17.02;7.65;;;;;;;4.07;71.26;102169.16;10258639;28;20051;-60
2023/01/23 20:44:41;;;;;;;14.98;7.35;;;;;;;4.12;71.47;102167.94;10253037;28;20064;-60
2023/01/23 20:49:43;;;;;;;13.60;7.32;;;;;;;4.17;71.21;102175.69;10254915;28;20087;-62
2023/01/23 20:54:45;;;;;;;15.15;7.55;;;;;;;4.26;71.23;102175.13;10257800;28;20051;-59
2023/01/23 20:59:46;;;;;;;15.25;7.40;;;;;;;4.30;71.31;102168.69;10249344;28;20051;-60
2023/01/23 21:04:49;;;;;;;16.27;7.45;;;;;;;4.28;71.01;102169.72;10244074;28;20107;-61
2023/01/23 21:09:50;;;;;;;17.77;8.50;;;;;;;4.24;71.06;102171.69;10247811;28;20051;-62
2023/01/23 21:14:52;;;;;;;15.15;7.25;;;;;;;4.15;71.27;102164.28;10245593;28;20051;-61
2023/01/23 21:19:53;;;;;;;17.45;8.18;;;;;;;4.10;71.23;102161.84;10241922;28;20036;-62
2023/01/23 21:24:55;;;;;;;18.80;8.85;;;;;;;4.09;70.91;102175.28;10251504;28;20066;-61
2023/01/23 21:29:56;;;;;;;17.48;8.23;;;;;;;4.09;70.75;102169.97;10247332;28;20043;-59
2023/01/23 21:34:57;;;;;;;16.55;8.32;;;;;;;3.98;70.91;102179.38;10257486;28;20054;-59
2023/01/23 21:39:59;;;;;;;16.88;8.30;;;;;;;3.92;70.84;102166.44;10256599;28;20055;-58
2023/01/23 21:45:00;;;;;;;18.73;7.93;;;;;;;3.84;71.27;102162.53;10255210;28;20538;-59
2023/01/23 21:50:01;;;;;;;18.95;8.88;;;;;;;3.75;71.52;102178.06;10254375;28;20060;-58
2023/01/23 21:55:03;;;;;;;18.50;8.65;;;;;;;3.80;71.42;102185.78;10258805;28;20035;-61
2023/01/23 22:05:26;;;;;;;18.02;7.78;;;;;;;3.75;71.50;102174.53;10252820;28;20051;-61
2023/01/23 22:10:28;;;;;;;14.90;8.13;;;;;;;3.77;71.43;102172.63;10251929;28;20051;-62
2023/01/23 22:15:29;;;;;;;15.55;8.75;;;;;;;3.75;71.59;102174.53;10259700;28;20161;-61
2023/01/23 22:20:31;;;;;;;16.63;8.38;;;;;;;3.77;71.61;102180.59;10260065;28;20425;-60
2023/01/23 22:25:32;;;;;;;18.77;8.20;;;;;;;3.72;71.57;102180.88;10253948;28;20519;-60
2023/01/23 22:30:33;;;;;;;17.10;8.57;;;;;;;3.76;71.51;102179.75;10249684;28;20078;-61
2023/01/23 22:35:38;;;;;;;20.67;7.55;;;;;;;3.70;71.71;102182.78;10249894;28;20039;-59
2023/01/23 22:40:41;;;;;;;16.30;7.78;;;;;;;3.73;71.91;102176.41;10251762;28;20058;-59
2023/01/23 22:45:42;;;;;;;14.10;6.88;;;;;;;3.70;71.70;102182.78;10256584;28;20051;-61
2023/01/23 22:50:43;;;;;;;13.85;6.55;;;;;;;3.69;71.99;102191.72;10255364;28;20058;-60
2023/01/23 22:55:45;;;;;;;16.20;7.38;;;;;;;3.65;72.04;102187.47;10254235;28;20044;-61
2023/01/23 23:00:52;;;;;;;13.80;7.25;;;;;;;3.67;72.20;102182.06;10252766;28;20048;-62
2023/01/23 23:06:02;;;;;;;17.85;8.02;;;;;;;3.70;71.61;102182.78;10259369;28;20054;-59
2023/01/23 23:11:09;;;;;;;14.20;7.28;;;;;;;3.66;71.72;102181.22;10255335;28;20051;-59
2023/01/23 23:16:12;;;;;;;15.30;6.45;;;;;;;3.67;72.04;102171.44;10254112;28;20055;-62
2023/01/23 23:21:19;;;;;;;19.67;8.10;;;;;;;3.67;72.05;102177.59;10232766;28;20051;-60
2023/01/23 23:26:26;;;;;;;16.77;7.47;;;;;;;3.66;71.99;102175.91;10234816;28;20089;-59
2023/01/23 23:31:28;;;;;;;16.58;6.80;;;;;;;3.66;72.29;102180.38;10244818;28;20048;-60
2023/01/23 23:36:30;;;;;;;17.38;7.38;;;;;;;3.70;72.10;102182.78;10252246;28;20052;-59
2023/01/23 23:41:32;;;;;;;14.18;7.25;;;;;;;3.67;72.28;102172.28;10250665;28;20062;-62
2023/01/23 23:46:33;;;;;;;18.38;7.80;;;;;;;3.66;72.59;102169.75;10251518;29;20168;-60
2023/01/23 23:51:35;;;;;;;14.65;6.45;;;;;;;3.66;72.83;102188.34;10252919;28;20047;-61
2023/01/23 23:56:36;;;;;;;14.50;7.07;;;;;;;3.71;72.26;102183.63;10248789;28;20043;-59
